sensor_id;sensor_type;location;lat;lon;timestamp;P1;durP1;ratioP1;P2;durP2;ratioP2
9773;SDS011;4926;42.670;23.316;2022-11-15T00:00:50;76.13;;;43.08;;
9773;SDS011;4926;42.670;23.316;2022-11-15T00:03:20;69.55;;;43.50;;
9773;SDS011;4926;42.670;23.316;2022-11-15T00:05:48;70.18;;;43.58;;
9773;SDS011;4926;42.670;23.316;2022-11-15T00:08:17;69.85;;;42.55;;
9773;SDS011;4926;42.670;23.316;2022-11-15T00:10:53;67.35;;;41.78;;
9773;SDS011;4926;42.670;23.316;2022-11-15T00:13:22;66.40;;;40.45;;
9773;SDS011;4926;42.670;23.316;2022-11-15T00:15:49;73.13;;;43.70;;
9773;SDS011;4926;42.670;23.316;2022-11-15T00:18:19;69.82;;;42.10;;
9773;SDS011;4926;42.670;23.316;2022-11-15T00:20:45;68.82;;;43.58;;
9773;SDS011;4926;42.670;23.316;2022-11-15T00:23:17;75.03;;;44.35;;
9773;SDS011;4926;42.670;23.316;2022-11-15T00:25:44;77.28;;;45.47;;
9773;SDS011;4926;42.670;23.316;2022-11-15T00:28:10;72.22;;;44.92;;
9773;SDS011;4926;42.670;23.316;2022-11-15T00:30:38;74.32;;;44.75;;
9773;SDS011;4926;42.670;23.316;2022-11-15T00:33:05;77.25;;;46.03;;
9773;SDS011;4926;42.670;23.316;2022-11-15T00:35:34;71.05;;;44.80;;
9773;SDS011;4926;42.670;23.316;2022-11-15T00:38:06;70.28;;;44.45;;
9773;SDS011;4926;42.670;23.316;2022-11-15T00:40:33;72.00;;;45.35;;
9773;SDS011;4926;42.670;23.316;2022-11-15T00:43:02;70.25;;;44.28;;
9773;SDS011;4926;42.670;23.316;2022-11-15T00:45:29;76.25;;;45.30;;
9773;SDS011;4926;42.670;23.316;2022-11-15T00:47:57;73.80;;;44.55;;
9773;SDS011;4926;42.670;23.316;2022-11-15T00:50:24;78.72;;;46.17;;
9773;SDS011;4926;42.670;23.316;2022-11-15T00:52:50;76.22;;;48.05;;
9773;SDS011;4926;42.670;23.316;2022-11-15T00:55:17;73.85;;;45.78;;
9773;SDS011;4926;42.670;23.316;2022-11-15T00:57:45;73.00;;;47.75;;
9773;SDS011;4926;42.670;23.316;2022-11-15T01:00:13;77.00;;;46.13;;
9773;SDS011;4926;42.670;23.316;2022-11-15T01:02:43;74.00;;;45.80;;
9773;SDS011;4926;42.670;23.316;2022-11-15T01:05:11;73.90;;;45.60;;
9773;SDS011;4926;42.670;23.316;2022-11-15T01:07:37;79.57;;;46.30;;
9773;SDS011;4926;42.670;23.316;2022-11-15T01:10:06;70.28;;;44.83;;
9773;SDS011;4926;42.670;23.316;2022-11-15T01:12:36;74.07;;;46.70;;
9773;SDS011;4926;42.670;23.316;2022-11-15T01:15:05;79.18;;;44.63;;
9773;SDS011;4926;42.670;23.316;2022-11-15T01:17:32;76.93;;;45.63;;
9773;SDS011;4926;42.670;23.316;2022-11-15T01:19:58;74.63;;;43.90;;
9773;SDS011;4926;42.670;23.316;2022-11-15T01:22:26;66.90;;;43.47;;
9773;SDS011;4926;42.670;23.316;2022-11-15T01:24:57;70.75;;;43.00;;
9773;SDS011;4926;42.670;23.316;2022-11-15T01:27:30;71.15;;;44.20;;
9773;SDS011;4926;42.670;23.316;2022-11-15T01:29:57;69.05;;;40.53;;
9773;SDS011;4926;42.670;23.316;2022-11-15T01:32:23;55.25;;;35.83;;
9773;SDS011;4926;42.670;23.316;2022-11-15T01:34:53;59.55;;;35.30;;
9773;SDS011;4926;42.670;23.316;2022-11-15T01:37:19;51.85;;;33.47;;
9773;SDS011;4926;42.670;23.316;2022-11-15T01:39:49;57.10;;;34.90;;
9773;SDS011;4926;42.670;23.316;2022-11-15T01:42:19;54.33;;;34.78;;
9773;SDS011;4926;42.670;23.316;2022-11-15T01:44:46;54.40;;;32.25;;
9773;SDS011;4926;42.670;23.316;2022-11-15T01:47:15;52.08;;;32.25;;
9773;SDS011;4926;42.670;23.316;2022-11-15T01:49:47;53.35;;;33.05;;
9773;SDS011;4926;42.670;23.316;2022-11-15T01:52:19;50.83;;;33.35;;
9773;SDS011;4926;42.670;23.316;2022-11-15T01:54:50;58.70;;;32.70;;
9773;SDS011;4926;42.670;23.316;2022-11-15T01:57:21;58.42;;;34.92;;
9773;SDS011;4926;42.670;23.316;2022-11-15T01:59:48;54.47;;;34.20;;
9773;SDS011;4926;42.670;23.316;2022-11-15T02:02:15;57.13;;;34.78;;
9773;SDS011;4926;42.670;23.316;2022-11-15T02:04:42;60.25;;;35.17;;
9773;SDS011;4926;42.670;23.316;2022-11-15T02:07:14;59.55;;;36.85;;
9773;SDS011;4926;42.670;23.316;2022-11-15T02:09:43;61.30;;;37.50;;
9773;SDS011;4926;42.670;23.316;2022-11-15T02:12:17;59.20;;;36.67;;
9773;SDS011;4926;42.670;23.316;2022-11-15T02:14:50;62.88;;;36.83;;
9773;SDS011;4926;42.670;23.316;2022-11-15T02:23:14;57.83;;;35.53;;
9773;SDS011;4926;42.670;23.316;2022-11-15T02:26:04;58.97;;;37.78;;
9773;SDS011;4926;42.670;23.316;2022-11-15T02:28:52;62.60;;;38.22;;
9773;SDS011;4926;42.670;23.316;2022-11-15T02:31:31;61.45;;;39.33;;
9773;SDS011;4926;42.670;23.316;2022-11-15T02:34:11;62.97;;;38.53;;
9773;SDS011;4926;42.670;23.316;2022-11-15T02:36:49;63.20;;;38.83;;
9773;SDS011;4926;42.670;23.316;2022-11-15T02:39:28;64.85;;;38.20;;
9773;SDS011;4926;42.670;23.316;2022-11-15T02:42:03;52.53;;;34.92;;
9773;SDS011;4926;42.670;23.316;2022-11-15T02:44:55;60.05;;;37.05;;
9773;SDS011;4926;42.670;23.316;2022-11-15T02:47:24;61.33;;;38.92;;
9773;SDS011;4926;42.670;23.316;2022-11-15T02:49:56;66.95;;;40.95;;
9773;SDS011;4926;42.670;23.316;2022-11-15T02:52:25;65.40;;;40.05;;
9773;SDS011;4926;42.670;23.316;2022-11-15T02:54:53;70.47;;;42.40;;
9773;SDS011;4926;42.670;23.316;2022-11-15T02:57:22;65.75;;;40.15;;
9773;SDS011;4926;42.670;23.316;2022-11-15T03:00:03;64.75;;;38.47;;
9773;SDS011;4926;42.670;23.316;2022-11-15T03:02:45;66.65;;;40.42;;
9773;SDS011;4926;42.670;23.316;2022-11-15T03:05:28;67.53;;;40.05;;
9773;SDS011;4926;42.670;23.316;2022-11-15T03:08:02;64.57;;;40.30;;
9773;SDS011;4926;42.670;23.316;2022-11-15T03:10:42;67.18;;;41.47;;
9773;SDS011;4926;42.670;23.316;2022-11-15T03:13:17;70.28;;;40.63;;
9773;SDS011;4926;42.670;23.316;2022-11-15T03:15:53;69.18;;;40.08;;
9773;SDS011;4926;42.670;23.316;2022-11-15T03:18:32;70.75;;;38.13;;
9773;SDS011;4926;42.670;23.316;2022-11-15T03:21:00;73.40;;;38.85;;
9773;SDS011;4926;42.670;23.316;2022-11-15T03:23:32;80.30;;;40.67;;
9773;SDS011;4926;42.670;23.316;2022-11-15T03:26:00;84.10;;;42.38;;
9773;SDS011;4926;42.670;23.316;2022-11-15T03:28:32;89.63;;;41.00;;
9773;SDS011;4926;42.670;23.316;2022-11-15T03:31:03;85.65;;;40.28;;
9773;SDS011;4926;42.670;23.316;2022-11-15T03:33:54;85.03;;;39.35;;
9773;SDS011;4926;42.670;23.316;2022-11-15T03:36:23;83.65;;;41.75;;
9773;SDS011;4926;42.670;23.316;2022-11-15T03:38:52;76.22;;;40.38;;
9773;SDS011;4926;42.670;23.316;2022-11-15T03:41:23;90.38;;;42.67;;
9773;SDS011;4926;42.670;23.316;2022-11-15T03:43:55;86.93;;;42.17;;
9773;SDS011;4926;42.670;23.316;2022-11-15T03:46:36;83.82;;;40.03;;
9773;SDS011;4926;42.670;23.316;2022-11-15T03:49:11;80.40;;;40.70;;
9773;SDS011;4926;42.670;23.316;2022-11-15T03:51:41;80.10;;;40.90;;
9773;SDS011;4926;42.670;23.316;2022-11-15T03:54:08;75.95;;;38.30;;
9773;SDS011;4926;42.670;23.316;2022-11-15T03:56:35;75.38;;;37.90;;
9773;SDS011;4926;42.670;23.316;2022-11-15T03:59:02;79.60;;;39.08;;
9773;SDS011;4926;42.670;23.316;2022-11-15T04:01:33;80.95;;;38.63;;
9773;SDS011;4926;42.670;23.316;2022-11-15T04:04:00;83.85;;;39.72;;
9773;SDS011;4926;42.670;23.316;2022-11-15T04:06:28;87.60;;;40.20;;
9773;SDS011;4926;42.670;23.316;2022-11-15T04:08:54;86.65;;;42.22;;
9773;SDS011;4926;42.670;23.316;2022-11-15T04:11:21;78.22;;;42.90;;
9773;SDS011;4926;42.670;23.316;2022-11-15T04:13:48;80.82;;;42.28;;
9773;SDS011;4926;42.670;23.316;2022-11-15T04:16:14;78.88;;;42.92;;
9773;SDS011;4926;42.670;23.316;2022-11-15T04:18:41;70.70;;;38.80;;
9773;SDS011;4926;42.670;23.316;2022-11-15T04:21:38;73.43;;;37.33;;
9773;SDS011;4926;42.670;23.316;2022-11-15T04:24:25;81.25;;;37.40;;
9773;SDS011;4926;42.670;23.316;2022-11-15T04:26:51;81.10;;;36.53;;
9773;SDS011;4926;42.670;23.316;2022-11-15T04:29:18;76.13;;;38.22;;
9773;SDS011;4926;42.670;23.316;2022-11-15T04:32:05;69.47;;;34.10;;
9773;SDS011;4926;42.670;23.316;2022-11-15T04:34:32;79.82;;;36.90;;
9773;SDS011;4926;42.670;23.316;2022-11-15T04:37:01;76.88;;;37.25;;
9773;SDS011;4926;42.670;23.316;2022-11-15T04:39:41;79.63;;;40.58;;
9773;SDS011;4926;42.670;23.316;2022-11-15T04:42:08;78.70;;;41.80;;
9773;SDS011;4926;42.670;23.316;2022-11-15T04:44:36;83.03;;;43.85;;
9773;SDS011;4926;42.670;23.316;2022-11-15T04:47:02;85.82;;;44.33;;
9773;SDS011;4926;42.670;23.316;2022-11-15T04:49:29;85.53;;;42.00;;
9773;SDS011;4926;42.670;23.316;2022-11-15T04:51:56;82.43;;;42.85;;
9773;SDS011;4926;42.670;23.316;2022-11-15T04:54:24;73.13;;;42.10;;
9773;SDS011;4926;42.670;23.316;2022-11-15T04:56:51;78.68;;;42.35;;
9773;SDS011;4926;42.670;23.316;2022-11-15T04:59:18;85.35;;;41.90;;
9773;SDS011;4926;42.670;23.316;2022-11-15T05:01:44;71.90;;;39.58;;
9773;SDS011;4926;42.670;23.316;2022-11-15T05:04:11;71.47;;;38.85;;
9773;SDS011;4926;42.670;23.316;2022-11-15T05:06:55;81.75;;;39.47;;
9773;SDS011;4926;42.670;23.316;2022-11-15T05:09:26;80.53;;;39.10;;
9773;SDS011;4926;42.670;23.316;2022-11-15T05:11:52;73.63;;;36.80;;
9773;SDS011;4926;42.670;23.316;2022-11-15T05:14:22;81.68;;;42.80;;
9773;SDS011;4926;42.670;23.316;2022-11-15T05:16:49;85.47;;;43.65;;
9773;SDS011;4926;42.670;23.316;2022-11-15T05:19:16;84.32;;;42.72;;
9773;SDS011;4926;42.670;23.316;2022-11-15T05:21:42;85.95;;;43.08;;
9773;SDS011;4926;42.670;23.316;2022-11-15T05:24:12;90.88;;;42.92;;
9773;SDS011;4926;42.670;23.316;2022-11-15T05:26:40;79.38;;;42.47;;
9773;SDS011;4926;42.670;23.316;2022-11-15T05:29:08;56.65;;;32.88;;
9773;SDS011;4926;42.670;23.316;2022-11-15T05:31:37;56.05;;;29.98;;
9773;SDS011;4926;42.670;23.316;2022-11-15T05:34:06;49.10;;;30.40;;
9773;SDS011;4926;42.670;23.316;2022-11-15T05:36:34;45.03;;;29.30;;
9773;SDS011;4926;42.670;23.316;2022-11-15T05:39:05;45.78;;;29.02;;
9773;SDS011;4926;42.670;23.316;2022-11-15T06:04:37;50.92;;;23.20;;
9773;SDS011;4926;42.670;23.316;2022-11-15T06:07:05;45.20;;;23.20;;
9773;SDS011;4926;42.670;23.316;2022-11-15T06:09:32;46.72;;;24.75;;
9773;SDS011;4926;42.670;23.316;2022-11-15T06:11:59;57.47;;;26.60;;
9773;SDS011;4926;42.670;23.316;2022-11-15T06:14:26;59.90;;;29.48;;
9773;SDS011;4926;42.670;23.316;2022-11-15T06:16:54;54.35;;;26.05;;
9773;SDS011;4926;42.670;23.316;2022-11-15T06:19:21;63.10;;;28.63;;
9773;SDS011;4926;42.670;23.316;2022-11-15T06:21:49;56.47;;;27.77;;
9773;SDS011;4926;42.670;23.316;2022-11-15T06:24:16;61.45;;;30.52;;
9773;SDS011;4926;42.670;23.316;2022-11-15T06:26:43;66.85;;;29.70;;
9773;SDS011;4926;42.670;23.316;2022-11-15T06:29:18;64.05;;;30.65;;
9773;SDS011;4926;42.670;23.316;2022-11-15T06:31:45;69.22;;;32.03;;
9773;SDS011;4926;42.670;23.316;2022-11-15T06:34:12;63.25;;;30.05;;
9773;SDS011;4926;42.670;23.316;2022-11-15T06:36:38;68.15;;;31.45;;
9773;SDS011;4926;42.670;23.316;2022-11-15T06:39:06;73.20;;;33.92;;
9773;SDS011;4926;42.670;23.316;2022-11-15T06:41:33;77.15;;;34.08;;
9773;SDS011;4926;42.670;23.316;2022-11-15T06:44:01;63.17;;;30.80;;
9773;SDS011;4926;42.670;23.316;2022-11-15T06:46:28;73.45;;;31.77;;
9773;SDS011;4926;42.670;23.316;2022-11-15T06:48:55;67.55;;;33.33;;
9773;SDS011;4926;42.670;23.316;2022-11-15T06:51:22;78.68;;;34.75;;
9773;SDS011;4926;42.670;23.316;2022-11-15T06:53:56;81.93;;;37.53;;
9773;SDS011;4926;42.670;23.316;2022-11-15T06:56:26;75.97;;;38.22;;
9773;SDS011;4926;42.670;23.316;2022-11-15T06:58:55;91.47;;;41.03;;
9773;SDS011;4926;42.670;23.316;2022-11-15T07:01:21;93.05;;;41.20;;
9773;SDS011;4926;42.670;23.316;2022-11-15T07:03:48;85.05;;;38.03;;
9773;SDS011;4926;42.670;23.316;2022-11-15T07:06:18;84.40;;;41.05;;
9773;SDS011;4926;42.670;23.316;2022-11-15T07:08:45;77.00;;;34.88;;
9773;SDS011;4926;42.670;23.316;2022-11-15T07:11:12;75.88;;;36.47;;
9773;SDS011;4926;42.670;23.316;2022-11-15T07:13:41;84.85;;;34.22;;
9773;SDS011;4926;42.670;23.316;2022-11-15T07:16:10;71.15;;;32.72;;
9773;SDS011;4926;42.670;23.316;2022-11-15T07:18:39;65.78;;;31.73;;
9773;SDS011;4926;42.670;23.316;2022-11-15T07:21:07;76.45;;;38.58;;
9773;SDS011;4926;42.670;23.316;2022-11-15T07:23:38;59.85;;;31.83;;
9773;SDS011;4926;42.670;23.316;2022-11-15T07:26:05;61.58;;;31.20;;
9773;SDS011;4926;42.670;23.316;2022-11-15T07:28:32;59.03;;;30.35;;
9773;SDS011;4926;42.670;23.316;2022-11-15T07:31:04;48.80;;;29.17;;
9773;SDS011;4926;42.670;23.316;2022-11-15T07:33:32;57.83;;;29.42;;
9773;SDS011;4926;42.670;23.316;2022-11-15T07:35:59;57.63;;;30.65;;
9773;SDS011;4926;42.670;23.316;2022-11-15T07:38:34;55.65;;;29.52;;
9773;SDS011;4926;42.670;23.316;2022-11-15T07:41:02;55.88;;;30.60;;
9773;SDS011;4926;42.670;23.316;2022-11-15T07:43:31;63.97;;;31.13;;
9773;SDS011;4926;42.670;23.316;2022-11-15T07:46:08;60.85;;;31.95;;
9773;SDS011;4926;42.670;23.316;2022-11-15T07:48:38;60.28;;;33.63;;
9773;SDS011;4926;42.670;23.316;2022-11-15T07:51:05;64.20;;;35.17;;
9773;SDS011;4926;42.670;23.316;2022-11-15T07:53:33;70.68;;;35.78;;
9773;SDS011;4926;42.670;23.316;2022-11-15T07:55:59;71.75;;;33.90;;
9773;SDS011;4926;42.670;23.316;2022-11-15T07:58:26;53.72;;;30.63;;
9773;SDS011;4926;42.670;23.316;2022-11-15T08:00:53;60.03;;;31.38;;
9773;SDS011;4926;42.670;23.316;2022-11-15T08:03:23;52.38;;;30.08;;
9773;SDS011;4926;42.670;23.316;2022-11-15T08:05:50;63.40;;;34.15;;
9773;SDS011;4926;42.670;23.316;2022-11-15T08:08:17;75.78;;;37.30;;
9773;SDS011;4926;42.670;23.316;2022-11-15T08:10:44;81.85;;;39.92;;
9773;SDS011;4926;42.670;23.316;2022-11-15T08:13:11;86.63;;;40.30;;
9773;SDS011;4926;42.670;23.316;2022-11-15T08:15:38;87.68;;;42.25;;
9773;SDS011;4926;42.670;23.316;2022-11-15T08:18:06;69.30;;;37.40;;
9773;SDS011;4926;42.670;23.316;2022-11-15T08:20:37;78.78;;;39.75;;
9773;SDS011;4926;42.670;23.316;2022-11-15T08:23:04;80.25;;;41.67;;
9773;SDS011;4926;42.670;23.316;2022-11-15T08:25:36;74.95;;;40.97;;
9773;SDS011;4926;42.670;23.316;2022-11-15T08:28:06;84.20;;;40.45;;
9773;SDS011;4926;42.670;23.316;2022-11-15T08:30:36;87.35;;;42.60;;
9773;SDS011;4926;42.670;23.316;2022-11-15T08:33:10;80.03;;;41.97;;
9773;SDS011;4926;42.670;23.316;2022-11-15T08:35:45;89.75;;;44.33;;
9773;SDS011;4926;42.670;23.316;2022-11-15T08:38:12;78.00;;;42.40;;
9773;SDS011;4926;42.670;23.316;2022-11-15T08:40:39;82.28;;;41.80;;
9773;SDS011;4926;42.670;23.316;2022-11-15T08:43:06;82.13;;;42.90;;
9773;SDS011;4926;42.670;23.316;2022-11-15T08:45:33;82.07;;;42.47;;
9773;SDS011;4926;42.670;23.316;2022-11-15T08:48:03;74.25;;;40.08;;
9773;SDS011;4926;42.670;23.316;2022-11-15T08:50:32;81.13;;;40.63;;
9773;SDS011;4926;42.670;23.316;2022-11-15T08:53:10;72.03;;;40.30;;
9773;SDS011;4926;42.670;23.316;2022-11-15T08:55:40;75.13;;;40.25;;
9773;SDS011;4926;42.670;23.316;2022-11-15T08:58:09;70.07;;;39.40;;
9773;SDS011;4926;42.670;23.316;2022-11-15T09:00:37;78.82;;;39.70;;
9773;SDS011;4926;42.670;23.316;2022-11-15T09:03:06;71.03;;;38.85;;
9773;SDS011;4926;42.670;23.316;2022-11-15T09:05:35;82.93;;;41.70;;
9773;SDS011;4926;42.670;23.316;2022-11-15T09:08:06;71.60;;;39.33;;
9773;SDS011;4926;42.670;23.316;2022-11-15T09:10:34;67.72;;;39.05;;
9773;SDS011;4926;42.670;23.316;2022-11-15T09:13:01;73.57;;;39.85;;
9773;SDS011;4926;42.670;23.316;2022-11-15T09:15:28;73.05;;;40.55;;
9773;SDS011;4926;42.670;23.316;2022-11-15T09:17:57;72.93;;;41.15;;
9773;SDS011;4926;42.670;23.316;2022-11-15T09:20:24;77.13;;;44.03;;
9773;SDS011;4926;42.670;23.316;2022-11-15T09:22:53;84.25;;;43.67;;
9773;SDS011;4926;42.670;23.316;2022-11-15T09:25:20;79.40;;;42.75;;
9773;SDS011;4926;42.670;23.316;2022-11-15T09:27:51;72.20;;;40.67;;
9773;SDS011;4926;42.670;23.316;2022-11-15T09:30:17;70.90;;;39.40;;
9773;SDS011;4926;42.670;23.316;2022-11-15T09:32:44;70.07;;;40.22;;
9773;SDS011;4926;42.670;23.316;2022-11-15T09:35:11;71.13;;;39.65;;
9773;SDS011;4926;42.670;23.316;2022-11-15T09:37:38;70.68;;;39.65;;
9773;SDS011;4926;42.670;23.316;2022-11-15T09:40:05;74.35;;;40.00;;
9773;SDS011;4926;42.670;23.316;2022-11-15T09:42:41;68.53;;;39.65;;
9773;SDS011;4926;42.670;23.316;2022-11-15T09:45:26;72.57;;;40.45;;
9773;SDS011;4926;42.670;23.316;2022-11-15T09:50:58;74.90;;;40.15;;
9773;SDS011;4926;42.670;23.316;2022-11-15T09:53:29;69.53;;;37.47;;
9773;SDS011;4926;42.670;23.316;2022-11-15T09:56:03;74.47;;;40.95;;
9773;SDS011;4926;42.670;23.316;2022-11-15T09:58:43;78.63;;;40.13;;
9773;SDS011;4926;42.670;23.316;2022-11-15T10:01:22;75.85;;;40.80;;
9773;SDS011;4926;42.670;23.316;2022-11-15T10:04:02;77.43;;;40.53;;
9773;SDS011;4926;42.670;23.316;2022-11-15T10:06:28;78.88;;;41.83;;
9773;SDS011;4926;42.670;23.316;2022-11-15T10:08:59;78.97;;;42.13;;
9773;SDS011;4926;42.670;23.316;2022-11-15T10:11:30;78.93;;;43.65;;
9773;SDS011;4926;42.670;23.316;2022-11-15T10:14:02;73.20;;;41.75;;
9773;SDS011;4926;42.670;23.316;2022-11-15T10:20:02;85.80;;;44.30;;
9773;SDS011;4926;42.670;23.316;2022-11-15T10:22:38;87.78;;;45.38;;
9773;SDS011;4926;42.670;23.316;2022-11-15T10:25:12;91.63;;;47.10;;
9773;SDS011;4926;42.670;23.316;2022-11-15T10:27:43;90.43;;;46.92;;
9773;SDS011;4926;42.670;23.316;2022-11-15T10:30:28;83.55;;;44.85;;
9773;SDS011;4926;42.670;23.316;2022-11-15T10:33:01;88.43;;;47.22;;
9773;SDS011;4926;42.670;23.316;2022-11-15T10:35:38;90.97;;;47.90;;
9773;SDS011;4926;42.670;23.316;2022-11-15T10:38:07;85.75;;;46.22;;
9773;SDS011;4926;42.670;23.316;2022-11-15T10:40:37;83.70;;;46.05;;
9773;SDS011;4926;42.670;23.316;2022-11-15T10:43:13;89.93;;;46.90;;
9773;SDS011;4926;42.670;23.316;2022-11-15T10:45:41;87.03;;;47.00;;
9773;SDS011;4926;42.670;23.316;2022-11-15T10:50:57;81.75;;;42.70;;
9773;SDS011;4926;42.670;23.316;2022-11-15T10:53:28;78.40;;;43.30;;
9773;SDS011;4926;42.670;23.316;2022-11-15T10:55:58;75.07;;;43.38;;
9773;SDS011;4926;42.670;23.316;2022-11-15T10:58:32;73.82;;;43.10;;
9773;SDS011;4926;42.670;23.316;2022-11-15T11:01:08;74.82;;;44.80;;
9773;SDS011;4926;42.670;23.316;2022-11-15T11:03:39;83.65;;;46.28;;
9773;SDS011;4926;42.670;23.316;2022-11-15T11:06:08;77.90;;;43.55;;
9773;SDS011;4926;42.670;23.316;2022-11-15T11:08:37;77.47;;;45.22;;
9773;SDS011;4926;42.670;23.316;2022-11-15T11:11:04;83.82;;;47.10;;
9773;SDS011;4926;42.670;23.316;2022-11-15T11:13:38;80.88;;;46.13;;
9773;SDS011;4926;42.670;23.316;2022-11-15T11:16:15;77.95;;;47.47;;
9773;SDS011;4926;42.670;23.316;2022-11-15T11:18:51;83.22;;;48.40;;
9773;SDS011;4926;42.670;23.316;2022-11-15T11:21:31;83.93;;;48.47;;
9773;SDS011;4926;42.670;23.316;2022-11-15T11:24:08;85.88;;;48.15;;
9773;SDS011;4926;42.670;23.316;2022-11-15T11:26:42;91.78;;;51.25;;
9773;SDS011;4926;42.670;23.316;2022-11-15T11:29:26;87.68;;;50.80;;
9773;SDS011;4926;42.670;23.316;2022-11-15T11:32:07;88.47;;;49.20;;
9773;SDS011;4926;42.670;23.316;2022-11-15T11:34:50;83.28;;;47.58;;
9773;SDS011;4926;42.670;23.316;2022-11-15T11:37:28;84.75;;;47.92;;
9773;SDS011;4926;42.670;23.316;2022-11-15T11:40:04;77.95;;;45.67;;
9773;SDS011;4926;42.670;23.316;2022-11-15T11:42:42;86.20;;;46.97;;
9773;SDS011;4926;42.670;23.316;2022-11-15T11:45:37;83.15;;;46.95;;
9773;SDS011;4926;42.670;23.316;2022-11-15T11:48:20;77.35;;;43.70;;
9773;SDS011;4926;42.670;23.316;2022-11-15T11:51:01;71.40;;;43.20;;
9773;SDS011;4926;42.670;23.316;2022-11-15T11:53:34;71.55;;;44.08;;
9773;SDS011;4926;42.670;23.316;2022-11-15T11:56:07;76.43;;;43.30;;
9773;SDS011;4926;42.670;23.316;2022-11-15T11:58:42;78.72;;;45.08;;
9773;SDS011;4926;42.670;23.316;2022-11-15T12:01:12;70.88;;;43.53;;
9773;SDS011;4926;42.670;23.316;2022-11-15T12:03:48;74.88;;;44.97;;
9773;SDS011;4926;42.670;23.316;2022-11-15T12:06:23;72.25;;;41.63;;
9773;SDS011;4926;42.670;23.316;2022-11-15T12:08:58;64.80;;;39.78;;
9773;SDS011;4926;42.670;23.316;2022-11-15T12:11:35;71.97;;;42.95;;
9773;SDS011;4926;42.670;23.316;2022-11-15T12:14:09;74.13;;;43.33;;
9773;SDS011;4926;42.670;23.316;2022-11-15T12:16:47;71.93;;;42.78;;
9773;SDS011;4926;42.670;23.316;2022-11-15T12:19:14;74.18;;;42.42;;
9773;SDS011;4926;42.670;23.316;2022-11-15T12:21:43;72.50;;;42.20;;
9773;SDS011;4926;42.670;23.316;2022-11-15T12:24:16;67.65;;;42.88;;
9773;SDS011;4926;42.670;23.316;2022-11-15T12:26:48;65.80;;;40.75;;
9773;SDS011;4926;42.670;23.316;2022-11-15T12:29:20;65.05;;;39.92;;
9773;SDS011;4926;42.670;23.316;2022-11-15T12:31:54;64.90;;;39.40;;
9773;SDS011;4926;42.670;23.316;2022-11-15T12:34:38;71.15;;;41.20;;
9773;SDS011;4926;42.670;23.316;2022-11-15T12:40:20;75.10;;;40.67;;
9773;SDS011;4926;42.670;23.316;2022-11-15T12:43:00;65.05;;;40.42;;
9773;SDS011;4926;42.670;23.316;2022-11-15T12:45:43;72.45;;;41.72;;
9773;SDS011;4926;42.670;23.316;2022-11-15T12:57:46;66.75;;;41.28;;
9773;SDS011;4926;42.670;23.316;2022-11-15T13:03:23;65.75;;;39.75;;
9773;SDS011;4926;42.670;23.316;2022-11-15T13:09:03;66.93;;;39.30;;
9773;SDS011;4926;42.670;23.316;2022-11-15T13:11:48;72.13;;;41.92;;
9773;SDS011;4926;42.670;23.316;2022-11-15T13:17:28;65.80;;;39.70;;
9773;SDS011;4926;42.670;23.316;2022-11-15T13:20:01;70.05;;;40.13;;
9773;SDS011;4926;42.670;23.316;2022-11-15T13:22:44;67.20;;;40.55;;
9773;SDS011;4926;42.670;23.316;2022-11-15T13:25:32;66.30;;;40.83;;
9773;SDS011;4926;42.670;23.316;2022-11-15T13:28:31;67.78;;;39.38;;
9773;SDS011;4926;42.670;23.316;2022-11-15T13:31:02;68.38;;;41.72;;
9773;SDS011;4926;42.670;23.316;2022-11-15T13:33:45;67.50;;;40.40;;
9773;SDS011;4926;42.670;23.316;2022-11-15T13:36:12;64.65;;;40.55;;
9773;SDS011;4926;42.670;23.316;2022-11-15T13:38:53;72.15;;;39.95;;
9773;SDS011;4926;42.670;23.316;2022-11-15T13:41:22;68.65;;;41.45;;
9773;SDS011;4926;42.670;23.316;2022-11-15T13:43:51;67.55;;;42.08;;
9773;SDS011;4926;42.670;23.316;2022-11-15T13:46:21;64.95;;;40.80;;
9773;SDS011;4926;42.670;23.316;2022-11-15T13:48:55;68.78;;;42.67;;
9773;SDS011;4926;42.670;23.316;2022-11-15T13:51:35;72.25;;;42.78;;
9773;SDS011;4926;42.670;23.316;2022-11-15T13:54:21;69.78;;;41.78;;
9773;SDS011;4926;42.670;23.316;2022-11-15T13:56:52;63.15;;;41.35;;
9773;SDS011;4926;42.670;23.316;2022-11-15T13:59:24;73.55;;;43.42;;
9773;SDS011;4926;42.670;23.316;2022-11-15T14:01:54;71.13;;;42.20;;
9773;SDS011;4926;42.670;23.316;2022-11-15T14:04:27;65.93;;;42.20;;
9773;SDS011;4926;42.670;23.316;2022-11-15T14:06:58;63.33;;;41.63;;
9773;SDS011;4926;42.670;23.316;2022-11-15T14:09:34;63.10;;;42.15;;
9773;SDS011;4926;42.670;23.316;2022-11-15T14:12:19;70.55;;;44.83;;
9773;SDS011;4926;42.670;23.316;2022-11-15T14:14:55;81.28;;;43.05;;
9773;SDS011;4926;42.670;23.316;2022-11-15T14:17:34;70.82;;;43.78;;
9773;SDS011;4926;42.670;23.316;2022-11-15T14:20:18;70.63;;;43.65;;
9773;SDS011;4926;42.670;23.316;2022-11-15T14:22:53;73.18;;;44.40;;
9773;SDS011;4926;42.670;23.316;2022-11-15T14:25:21;76.68;;;44.03;;
9773;SDS011;4926;42.670;23.316;2022-11-15T14:28:09;69.43;;;42.78;;
9773;SDS011;4926;42.670;23.316;2022-11-15T14:30:38;72.35;;;43.10;;
9773;SDS011;4926;42.670;23.316;2022-11-15T14:33:19;70.85;;;45.55;;
9773;SDS011;4926;42.670;23.316;2022-11-15T14:35:51;80.63;;;44.30;;
9773;SDS011;4926;42.670;23.316;2022-11-15T14:38:19;79.35;;;46.55;;
9773;SDS011;4926;42.670;23.316;2022-11-15T14:40:46;73.40;;;46.00;;
9773;SDS011;4926;42.670;23.316;2022-11-15T14:43:13;72.30;;;46.45;;
9773;SDS011;4926;42.670;23.316;2022-11-15T14:45:40;74.82;;;45.28;;
9773;SDS011;4926;42.670;23.316;2022-11-15T14:48:07;76.07;;;44.63;;
9773;SDS011;4926;42.670;23.316;2022-11-15T14:50:36;82.22;;;47.72;;
9773;SDS011;4926;42.670;23.316;2022-11-15T14:53:03;77.50;;;47.30;;
9773;SDS011;4926;42.670;23.316;2022-11-15T14:55:30;75.65;;;47.88;;
9773;SDS011;4926;42.670;23.316;2022-11-15T14:58:00;80.18;;;47.03;;
9773;SDS011;4926;42.670;23.316;2022-11-15T15:00:28;78.07;;;49.03;;
9773;SDS011;4926;42.670;23.316;2022-11-15T15:02:55;78.45;;;48.08;;
9773;SDS011;4926;42.670;23.316;2022-11-15T15:05:29;79.18;;;48.42;;
9773;SDS011;4926;42.670;23.316;2022-11-15T15:07:59;82.00;;;48.20;;
9773;SDS011;4926;42.670;23.316;2022-11-15T15:10:27;84.60;;;48.35;;
9773;SDS011;4926;42.670;23.316;2022-11-15T15:12:57;84.82;;;49.53;;
9773;SDS011;4926;42.670;23.316;2022-11-15T15:15:29;82.85;;;49.35;;
9773;SDS011;4926;42.670;23.316;2022-11-15T15:18:01;80.95;;;49.58;;
9773;SDS011;4926;42.670;23.316;2022-11-15T15:20:33;87.35;;;49.70;;
9773;SDS011;4926;42.670;23.316;2022-11-15T15:23:02;86.20;;;52.78;;
9773;SDS011;4926;42.670;23.316;2022-11-15T15:25:30;91.70;;;53.92;;
9773;SDS011;4926;42.670;23.316;2022-11-15T15:27:58;81.30;;;51.35;;
9773;SDS011;4926;42.670;23.316;2022-11-15T15:30:28;94.25;;;52.10;;
9773;SDS011;4926;42.670;23.316;2022-11-15T15:32:56;90.57;;;53.63;;
9773;SDS011;4926;42.670;23.316;2022-11-15T15:35:23;78.70;;;48.38;;
9773;SDS011;4926;42.670;23.316;2022-11-15T15:37:55;81.47;;;48.13;;
9773;SDS011;4926;42.670;23.316;2022-11-15T15:40:24;83.95;;;50.20;;
9773;SDS011;4926;42.670;23.316;2022-11-15T15:42:53;84.72;;;50.00;;
9773;SDS011;4926;42.670;23.316;2022-11-15T15:45:20;89.00;;;51.80;;
9773;SDS011;4926;42.670;23.316;2022-11-15T15:47:46;87.53;;;49.20;;
9773;SDS011;4926;42.670;23.316;2022-11-15T15:50:18;85.22;;;48.40;;
9773;SDS011;4926;42.670;23.316;2022-11-15T15:52:48;89.55;;;51.15;;
9773;SDS011;4926;42.670;23.316;2022-11-15T15:55:14;82.28;;;50.67;;
9773;SDS011;4926;42.670;23.316;2022-11-15T15:57:43;82.82;;;49.17;;